createdAt,value
2018-02-13T00:01:48.701Z,87.20
2018-02-13T00:04:16.188Z,87.20
2018-02-13T00:06:43.666Z,87.40
2018-02-13T00:09:11.192Z,87.50
2018-02-13T00:11:39.064Z,87.40
2018-02-13T00:14:06.572Z,87.40
2018-02-13T00:16:34.052Z,87.60
2018-02-13T00:19:01.556Z,87.70
2018-02-13T00:21:29.075Z,88.00
2018-02-13T00:23:56.584Z,87.90
2018-02-13T00:26:24.068Z,87.60
2018-02-13T00:28:51.572Z,87.30
2018-02-13T00:31:19.452Z,87.40
2018-02-13T00:33:47.344Z,87.20
2018-02-13T00:36:14.836Z,87.20
2018-02-13T00:38:42.359Z,87.60
2018-02-13T00:41:09.928Z,87.60
2018-02-13T00:43:37.427Z,87.70
2018-02-13T00:46:04.979Z,87.60
2018-02-13T00:48:32.961Z,87.60
2018-02-13T00:51:00.845Z,87.60
2018-02-13T00:53:28.820Z,87.10
2018-02-13T00:55:56.703Z,87.10
2018-02-13T00:58:24.596Z,87.40
2018-02-13T01:00:52.466Z,87.30
2018-02-13T01:03:20.372Z,87.10
2018-02-13T01:05:47.851Z,87.10
2018-02-13T01:08:15.352Z,87.50
2018-02-13T01:10:42.831Z,87.30
2018-02-13T01:13:10.327Z,87.40
2018-02-13T01:15:38.207Z,87.60
2018-02-13T01:18:06.095Z,87.20
2018-02-13T01:20:33.976Z,87.30
2018-02-13T01:23:01.484Z,87.30
2018-02-13T01:25:28.969Z,87.40
2018-02-13T01:27:56.479Z,87.50
2018-02-13T01:30:24.356Z,87.60
2018-02-13T01:32:52.230Z,87.30
2018-02-13T01:35:20.144Z,87.90
2018-02-13T01:37:47.624Z,88.00
2018-02-13T01:40:15.119Z,87.50
2018-02-13T01:42:42.600Z,87.40
2018-02-13T01:45:10.099Z,87.70
2018-02-13T01:47:37.978Z,87.20
2018-02-13T01:50:17.759Z,86.80
2018-02-13T01:52:45.244Z,86.80
2018-02-13T01:55:13.571Z,87.70
2018-02-13T01:57:41.058Z,87.90
2018-02-13T02:00:08.636Z,87.60
2018-02-13T02:02:36.204Z,87.20
2018-02-13T02:05:03.694Z,86.60
2018-02-13T02:07:31.572Z,88.10
2018-02-13T02:09:59.459Z,88.10
2018-02-13T02:12:26.944Z,88.10
2018-02-13T02:14:54.472Z,88.10
2018-02-13T02:17:22.371Z,88.10
2018-02-13T02:19:50.265Z,87.60
2018-02-13T02:22:17.743Z,87.60
2018-02-13T02:24:45.249Z,87.60
2018-02-13T02:27:12.733Z,87.10
2018-02-13T02:29:40.231Z,87.00
2018-02-13T02:32:08.116Z,86.60
2018-02-13T02:34:36.016Z,86.30
2018-02-13T02:37:03.496Z,86.30
2018-02-13T02:39:30.996Z,86.40
2018-02-13T02:41:58.492Z,86.40
2018-02-13T02:44:25.991Z,87.00
2018-02-13T02:46:53.474Z,87.00
2018-02-13T02:49:20.966Z,86.90
2018-02-13T02:51:48.456Z,86.60
2018-02-13T02:54:15.952Z,87.20
2018-02-13T02:56:43.919Z,87.30
2018-02-13T02:59:11.424Z,87.30
2018-02-13T03:01:38.968Z,87.90
2018-02-13T03:04:06.472Z,88.20
2018-02-13T03:06:33.956Z,88.30
2018-02-13T03:09:01.431Z,88.80
2018-02-13T03:11:28.931Z,88.70
2018-02-13T03:13:56.416Z,88.60
2018-02-13T03:16:23.992Z,88.50
2018-02-13T03:18:51.863Z,87.50
2018-02-13T03:21:19.354Z,87.50
2018-02-13T03:23:47.236Z,88.20
2018-02-13T03:26:14.798Z,88.20
2018-02-13T03:28:42.358Z,88.00
2018-02-13T03:31:09.860Z,88.20
2018-02-13T03:33:37.334Z,87.70
2018-02-13T03:36:04.840Z,87.90
2018-02-13T03:38:32.324Z,87.90
2018-02-13T03:40:59.823Z,88.20
2018-02-13T03:43:27.694Z,87.90
2018-02-13T03:45:55.587Z,87.80
2018-02-13T03:48:23.466Z,87.60
2018-02-13T03:50:51.364Z,87.90
2018-02-13T03:53:18.840Z,87.90
2018-02-13T03:55:46.336Z,88.10
2018-02-13T03:58:13.816Z,88.10
2018-02-13T04:00:41.320Z,88.20
2018-02-13T04:03:09.236Z,87.80
2018-02-13T04:05:36.773Z,87.60
2018-02-13T04:08:04.661Z,87.90
2018-02-13T04:10:32.629Z,87.80
2018-02-13T04:13:00.503Z,88.20
2018-02-13T04:15:28.008Z,88.20
2018-02-13T04:17:55.482Z,87.90
2018-02-13T04:20:22.974Z,87.90
2018-02-13T04:22:50.459Z,87.90
2018-02-13T04:25:17.954Z,88.00
2018-02-13T04:27:45.430Z,88.20
2018-02-13T04:30:12.928Z,88.20
2018-02-13T04:32:40.412Z,88.20
2018-02-13T04:35:07.912Z,88.20
2018-02-13T04:37:35.404Z,88.10
2018-02-13T04:40:02.884Z,88.10
2018-02-13T04:42:30.780Z,88.20
2018-02-13T04:44:58.663Z,88.20
2018-02-13T04:47:26.154Z,88.20
2018-02-13T04:49:53.631Z,88.30
2018-02-13T04:52:21.132Z,88.30
2018-02-13T04:54:48.715Z,88.20
2018-02-13T04:57:16.216Z,88.20
2018-02-13T04:59:44.176Z,88.10
2018-02-13T05:02:11.676Z,88.10
2018-02-13T05:04:39.220Z,88.20
2018-02-13T05:07:06.719Z,88.20
2018-02-13T05:09:34.200Z,88.10
2018-02-13T05:12:01.731Z,88.00
2018-02-13T05:14:29.206Z,87.80
2018-02-13T05:16:57.099Z,88.10
2018-02-13T05:19:24.976Z,88.20
2018-02-13T05:21:52.943Z,88.00
2018-02-13T05:24:20.428Z,88.00
2018-02-13T05:26:47.919Z,87.80
2018-02-13T05:29:15.484Z,87.90
2018-02-13T05:31:42.987Z,88.00
2018-02-13T05:34:10.468Z,87.80
2018-02-13T05:36:38.023Z,87.80
2018-02-13T05:39:05.540Z,87.40
2018-02-13T05:41:33.514Z,87.60
2018-02-13T05:44:01.118Z,87.60
2018-02-13T05:46:28.619Z,87.60
2018-02-13T05:48:56.161Z,87.90
2018-02-13T05:51:23.708Z,88.00
2018-02-13T05:53:51.588Z,87.90
2018-02-13T05:56:19.159Z,88.00
2018-02-13T05:58:46.630Z,87.90
2018-02-13T06:01:14.504Z,88.00
2018-02-13T06:03:42.003Z,88.00
2018-02-13T06:06:09.968Z,87.80
2018-02-13T06:08:37.943Z,87.60
2018-02-13T06:11:05.422Z,87.60
2018-02-13T06:13:33.396Z,87.80
2018-02-13T06:16:00.867Z,87.80
2018-02-13T06:18:28.847Z,87.90
2018-02-13T06:20:56.327Z,87.90
2018-02-13T06:23:24.224Z,87.60
2018-02-13T06:25:51.699Z,87.60
2018-02-13T06:28:19.206Z,87.40
2018-02-13T06:30:46.688Z,87.60
2018-02-13T06:33:14.184Z,87.60
2018-02-13T06:35:42.064Z,87.80
2018-02-13T06:38:09.960Z,87.40
2018-02-13T06:40:37.887Z,87.80
2018-02-13T06:43:05.345Z,87.80
2018-02-13T06:45:32.828Z,87.90
2018-02-13T06:48:00.336Z,87.50
2018-02-13T06:50:28.211Z,87.20
2018-02-13T06:52:55.780Z,87.30
2018-02-13T06:55:23.254Z,87.40
2018-02-13T06:57:51.231Z,87.40
2018-02-13T07:00:18.702Z,87.40
2018-02-13T07:02:46.276Z,87.50
2018-02-13T07:05:13.838Z,87.60
2018-02-13T07:07:41.335Z,87.40
2018-02-13T07:10:09.215Z,87.10
2018-02-13T07:12:37.180Z,87.00
2018-02-13T07:15:04.660Z,87.00
2018-02-13T07:17:32.649Z,86.90
2018-02-13T07:20:00.533Z,86.90
2018-02-13T07:22:28.036Z,86.90
2018-02-13T07:24:55.521Z,87.00
2018-02-13T07:27:23.006Z,87.30
2018-02-13T07:29:50.520Z,87.10
2018-02-13T07:32:18.008Z,87.20
2018-02-13T07:34:45.498Z,92.10
2018-02-13T07:37:12.991Z,82.80
2018-02-13T07:39:40.492Z,83.10
2018-02-13T07:42:08.368Z,85.20
2018-02-13T07:44:36.264Z,86.10
2018-02-13T07:47:03.803Z,86.10
2018-02-13T07:49:31.336Z,86.30
2018-02-13T07:51:58.819Z,86.50
2018-02-13T07:54:26.310Z,86.80
2018-02-13T07:56:53.795Z,86.80
2018-02-13T07:59:21.700Z,87.30
2018-02-13T08:01:49.178Z,87.30
2018-02-13T08:04:16.683Z,87.30
2018-02-13T08:06:44.168Z,87.10
2018-02-13T08:09:11.674Z,86.90
2018-02-13T08:11:39.249Z,86.90
2018-02-13T08:14:06.792Z,86.40
2018-02-13T08:16:34.300Z,86.10
2018-02-13T08:19:01.835Z,86.10
2018-02-13T08:21:29.320Z,86.00
2018-02-13T08:23:57.219Z,85.60
2018-02-13T08:26:24.701Z,85.60
2018-02-13T08:28:52.200Z,85.60
2018-02-13T08:31:19.680Z,85.80
2018-02-13T08:33:47.163Z,85.00
2018-02-13T08:36:14.644Z,84.00
2018-02-13T08:38:42.615Z,82.60
2018-02-13T08:41:10.104Z,82.50
2018-02-13T08:43:37.999Z,81.10
2018-02-13T08:46:05.481Z,81.10
2018-02-13T08:48:32.972Z,79.90
2018-02-13T08:51:00.469Z,79.30
2018-02-13T08:53:27.946Z,78.30
2018-02-13T08:55:55.444Z,78.30
2018-02-13T08:58:23.400Z,77.80
2018-02-13T09:00:50.975Z,77.70
2018-02-13T09:03:18.851Z,76.60
2018-02-13T09:05:46.357Z,76.60
2018-02-13T09:08:13.832Z,76.20
2018-02-13T09:10:41.322Z,76.10
2018-02-13T09:13:08.796Z,75.50
2018-02-13T09:15:36.292Z,74.40
2018-02-13T09:18:03.771Z,74.00
2018-02-13T09:20:31.272Z,73.70
2018-02-13T09:22:58.752Z,73.40
2018-02-13T09:25:26.282Z,73.80
2018-02-13T09:27:53.855Z,73.70
2018-02-13T09:30:21.354Z,74.00
2018-02-13T09:32:49.229Z,75.40
2018-02-13T09:35:17.120Z,71.50
2018-02-13T09:37:44.595Z,71.50
2018-02-13T09:40:12.083Z,71.00
2018-02-13T09:42:39.555Z,72.00
2018-02-13T09:45:07.057Z,71.90
2018-02-13T09:47:34.540Z,73.70
2018-02-13T09:50:02.116Z,73.70
2018-02-13T09:52:30.160Z,72.90
2018-02-13T09:54:57.652Z,72.80
2018-02-13T09:57:25.132Z,72.70
2018-02-13T09:59:52.628Z,74.10
2018-02-13T10:02:20.172Z,72.90
2018-02-13T10:04:47.622Z,71.70
2018-02-13T10:07:15.124Z,70.60
2018-02-13T10:09:43.011Z,71.10
2018-02-13T10:12:10.564Z,71.10
2018-02-13T10:14:38.065Z,71.20
2018-02-13T10:17:05.708Z,71.50
2018-02-13T10:19:33.195Z,71.40
2018-02-13T10:22:01.129Z,72.00
2018-02-13T10:24:28.608Z,72.00
2018-02-13T10:26:56.108Z,70.50
2018-02-13T10:29:23.584Z,71.20
2018-02-13T10:31:51.476Z,71.00
2018-02-13T10:34:19.441Z,71.80
2018-02-13T10:36:46.959Z,71.80
2018-02-13T10:39:14.439Z,71.30
2018-02-13T10:41:41.928Z,71.60
2018-02-13T10:44:09.492Z,71.80
2018-02-13T10:46:36.996Z,71.50
2018-02-13T10:49:04.620Z,71.80
2018-02-13T10:51:32.116Z,71.70
2018-02-13T10:53:59.591Z,71.60
2018-02-13T10:56:27.091Z,71.30
2018-02-13T10:58:54.988Z,71.10
2018-02-13T11:01:28.244Z,71.10
2018-02-13T11:03:55.763Z,71.60
2018-02-13T11:06:23.256Z,72.50
2018-02-13T11:08:50.910Z,72.90
2018-02-13T11:11:18.403Z,71.80
2018-02-13T11:13:45.892Z,72.50
2018-02-13T11:16:13.397Z,71.70
2018-02-13T11:18:41.268Z,70.40
2018-02-13T11:21:08.765Z,70.30
2018-02-13T11:23:36.634Z,71.30
2018-02-13T11:26:04.536Z,70.10
2018-02-13T11:28:32.007Z,70.10
2018-02-13T11:30:59.500Z,69.30
2018-02-13T11:33:26.976Z,69.70
2018-02-13T11:35:54.607Z,69.40
2018-02-13T11:38:22.480Z,70.90
2018-02-13T11:40:50.452Z,70.20
2018-02-13T11:43:18.322Z,70.40
2018-02-13T11:45:45.823Z,70.40
2018-02-13T11:48:13.316Z,70.00
2018-02-13T11:50:40.904Z,68.80
2018-02-13T11:53:08.408Z,67.20
2018-02-13T11:55:35.975Z,68.30
2018-02-13T11:58:03.579Z,66.90
2018-02-13T12:00:31.448Z,67.10
2018-02-13T12:02:59.326Z,67.00
2018-02-13T12:05:27.300Z,66.50
2018-02-13T12:07:54.812Z,66.50
2018-02-13T12:10:22.336Z,68.70
2018-02-13T12:12:49.903Z,67.10
2018-02-13T12:15:17.384Z,65.80
2018-02-13T12:17:44.879Z,65.80
2018-02-13T12:20:12.347Z,66.20
2018-02-13T12:22:39.864Z,66.50
2018-02-13T12:25:07.364Z,65.10
2018-02-13T12:27:35.035Z,64.70
2018-02-13T12:30:02.537Z,65.30
2018-02-13T12:32:30.074Z,63.70
2018-02-13T12:34:57.560Z,63.90
2018-02-13T12:37:25.442Z,63.70
2018-02-13T12:39:53.320Z,64.30
2018-02-13T12:42:21.225Z,63.30
2018-02-13T12:44:48.736Z,63.30
2018-02-13T12:47:16.216Z,64.60
2018-02-13T12:49:43.687Z,66.50
2018-02-13T12:52:11.371Z,63.60
2018-02-13T12:54:38.848Z,63.70
2018-02-13T12:57:06.368Z,64.30
2018-02-13T12:59:33.887Z,64.20
2018-02-13T13:02:01.531Z,64.30
2018-02-13T13:04:29.008Z,64.80
2018-02-13T13:06:56.599Z,65.20
2018-02-13T13:09:24.076Z,64.20
2018-02-13T13:11:51.884Z,64.70
2018-02-13T13:14:19.351Z,63.60
2018-02-13T13:16:47.314Z,63.60
2018-02-13T13:19:15.188Z,63.20
2018-02-13T13:21:42.666Z,63.20
2018-02-13T13:24:10.564Z,65.30
2018-02-13T13:26:38.045Z,65.30
2018-02-13T13:29:05.538Z,65.80
2018-02-13T13:31:33.105Z,65.50
2018-02-13T13:34:00.598Z,64.90
2018-02-13T13:36:28.210Z,64.20
2018-02-13T13:38:56.096Z,63.40
2018-02-13T13:41:23.963Z,64.60
2018-02-13T13:43:51.857Z,62.70
2018-02-13T13:46:19.423Z,62.70
2018-02-13T13:48:47.316Z,62.50
2018-02-13T13:51:14.907Z,62.50
2018-02-13T13:53:42.399Z,62.00
2018-02-13T13:56:09.934Z,63.10
2018-02-13T13:58:37.422Z,62.40
2018-02-13T14:01:05.032Z,62.50
2018-02-13T14:03:32.514Z,61.80
2018-02-13T14:06:00.007Z,62.10
2018-02-13T14:08:27.503Z,62.20
2018-02-13T14:10:55.117Z,62.20
2018-02-13T14:13:22.616Z,62.00
2018-02-13T14:15:50.711Z,62.40
2018-02-13T14:18:18.204Z,62.40
2018-02-13T14:20:45.811Z,62.60
2018-02-13T14:23:13.299Z,62.30
2018-02-13T14:25:40.917Z,62.60
2018-02-13T14:28:08.413Z,62.70
2018-02-13T14:30:35.892Z,61.90
2018-02-13T14:33:03.380Z,61.00
2018-02-13T14:35:31.455Z,60.10
2018-02-13T14:37:58.948Z,60.10
2018-02-13T14:40:27.049Z,60.00
2018-02-13T14:42:54.519Z,60.00
2018-02-13T14:45:22.339Z,59.70
2018-02-13T14:47:49.807Z,59.50
2018-02-13T14:50:17.304Z,59.50
2018-02-13T14:52:44.824Z,60.80
2018-02-13T14:55:12.313Z,60.50
2018-02-13T14:57:39.787Z,60.60
2018-02-13T15:00:07.296Z,61.10
2018-02-13T15:02:35.172Z,60.30
2018-02-13T15:05:02.660Z,60.30
2018-02-13T15:07:30.533Z,61.70
2018-02-13T15:09:58.425Z,61.30
2018-02-13T15:12:26.411Z,61.60
2018-02-13T15:14:55.544Z,61.60
2018-02-13T15:17:28.767Z,61.50
2018-02-13T15:19:56.260Z,61.00
2018-02-13T15:22:23.736Z,60.70
2018-02-13T15:24:51.230Z,60.70
2018-02-13T15:27:19.115Z,60.30
2018-02-13T15:29:46.607Z,60.30
2018-02-13T15:32:14.088Z,61.70
2018-02-13T15:34:41.584Z,60.50
2018-02-13T15:37:09.056Z,60.50
2018-02-13T15:39:36.650Z,60.80
2018-02-13T15:42:04.519Z,61.40
2018-02-13T15:44:32.003Z,61.40
2018-02-13T15:47:11.756Z,61.70
2018-02-13T15:49:39.707Z,61.90
2018-02-13T15:52:07.191Z,61.90
2018-02-13T15:54:34.927Z,62.30
2018-02-13T15:57:02.448Z,66.60
2018-02-13T15:59:30.178Z,61.30
2018-02-13T16:01:57.652Z,61.50
2018-02-13T16:04:25.280Z,61.60
2018-02-13T16:06:53.156Z,62.20
2018-02-13T16:09:21.048Z,63.00
2018-02-13T16:11:48.929Z,62.60
2018-02-13T16:14:16.892Z,62.30
2018-02-13T16:16:44.363Z,62.30
2018-02-13T16:19:12.264Z,63.10
2018-02-13T16:21:39.812Z,63.10
2018-02-13T16:24:07.296Z,62.70
2018-02-13T16:26:35.196Z,63.60
2018-02-13T16:29:02.668Z,63.60
2018-02-13T16:31:30.159Z,63.80
2018-02-13T16:33:57.636Z,63.90
2018-02-13T16:36:25.130Z,63.90
2018-02-13T16:38:52.608Z,63.70
2018-02-13T16:41:20.100Z,63.20
2018-02-13T16:43:48.059Z,64.00
2018-02-13T16:46:15.652Z,64.00
2018-02-13T16:48:43.519Z,64.30
2018-02-13T16:51:11.407Z,64.00
2018-02-13T16:53:39.284Z,64.30
2018-02-13T16:56:07.172Z,64.90
2018-02-13T16:58:35.141Z,64.60
2018-02-13T17:01:02.640Z,64.60
2018-02-13T17:03:30.176Z,64.60
2018-02-13T17:05:57.753Z,64.90
2018-02-13T17:08:25.226Z,65.10
2018-02-13T17:10:53.114Z,65.10
2018-02-13T17:13:20.988Z,65.60
2018-02-13T17:15:48.876Z,65.80
2018-02-13T17:18:16.844Z,65.80
2018-02-13T17:20:44.366Z,65.80
2018-02-13T17:23:11.844Z,65.60
2018-02-13T17:25:39.340Z,65.90
2018-02-13T17:28:06.824Z,66.10
2018-02-13T17:30:34.380Z,66.50
2018-02-13T17:33:01.868Z,66.30
2018-02-13T17:35:29.764Z,66.50
2018-02-13T17:37:57.632Z,66.80
2018-02-13T17:40:25.525Z,67.00
2018-02-13T17:42:53.489Z,67.30
2018-02-13T17:45:20.974Z,67.30
2018-02-13T17:47:48.848Z,67.00
2018-02-13T17:50:16.733Z,67.60
2018-02-13T17:52:44.622Z,67.20
2018-02-13T17:55:12.104Z,67.20
2018-02-13T17:57:39.589Z,67.50
2018-02-13T18:00:07.068Z,67.50
2018-02-13T18:02:34.564Z,68.00
2018-02-13T18:05:02.031Z,68.50
2018-02-13T18:07:29.534Z,68.80
2018-02-13T18:09:57.410Z,68.50
2018-02-13T18:12:25.313Z,68.90
2018-02-13T18:14:52.787Z,68.90
2018-02-13T18:17:20.284Z,69.00
2018-02-13T18:19:47.758Z,69.30
2018-02-13T18:22:15.257Z,69.20
2018-02-13T18:24:42.750Z,68.90
2018-02-13T18:27:10.263Z,69.00
2018-02-13T18:29:37.753Z,69.20
2018-02-13T18:32:05.242Z,69.40
2018-02-13T18:34:32.715Z,69.40
2018-02-13T18:37:00.293Z,69.20
2018-02-13T18:39:28.167Z,68.70
2018-02-13T18:41:55.730Z,68.70
2018-02-13T18:44:23.207Z,68.90
2018-02-13T18:46:50.703Z,69.10
2018-02-13T18:49:18.184Z,69.20
2018-02-13T18:51:45.683Z,69.30
2018-02-13T18:54:13.156Z,69.70
2018-02-13T18:56:40.647Z,69.40
2018-02-13T18:59:08.115Z,69.20
2018-02-13T19:01:35.606Z,69.70
2018-02-13T19:04:03.490Z,70.10
2018-02-13T19:06:31.390Z,70.20
2018-02-13T19:08:58.867Z,70.20
2018-02-13T19:11:26.363Z,70.50
2018-02-13T19:13:53.849Z,70.50
2018-02-13T19:16:21.334Z,70.60
2018-02-13T19:18:48.839Z,70.20
2018-02-13T19:21:16.323Z,70.40
2018-02-13T19:23:43.810Z,70.40
2018-02-13T19:26:11.290Z,70.90
2018-02-13T19:28:38.791Z,71.10
2018-02-13T19:31:06.276Z,71.10
2018-02-13T19:33:34.168Z,71.10
2018-02-13T19:36:01.720Z,71.10
2018-02-13T19:38:29.603Z,71.40
2018-02-13T19:40:57.472Z,71.40
2018-02-13T19:43:24.973Z,71.40
2018-02-13T19:45:52.452Z,71.40
2018-02-13T19:48:19.963Z,71.60
2018-02-13T19:50:47.444Z,71.70
2018-02-13T19:53:14.940Z,71.90
2018-02-13T19:55:42.827Z,71.80
2018-02-13T19:58:10.711Z,71.90
2018-02-13T20:00:38.193Z,71.90
2018-02-13T20:03:05.686Z,72.00
2018-02-13T20:05:33.169Z,71.90
2018-02-13T20:08:00.684Z,72.40
2018-02-13T20:10:28.561Z,72.30
2018-02-13T20:12:56.447Z,72.40
2018-02-13T20:15:24.448Z,72.40
2018-02-13T20:17:51.980Z,72.40
2018-02-13T20:20:19.478Z,72.30
2018-02-13T20:22:46.984Z,72.20
2018-02-13T20:25:14.465Z,72.40
2018-02-13T20:27:41.951Z,72.40
2018-02-13T20:30:09.449Z,71.90
2018-02-13T20:32:37.358Z,72.30
2018-02-13T20:35:04.841Z,72.30
2018-02-13T20:37:32.380Z,72.40
2018-02-13T20:39:59.861Z,72.20
2018-02-13T20:42:27.391Z,72.30
2018-02-13T20:44:54.972Z,72.30
2018-02-13T20:47:22.877Z,72.60
2018-02-13T20:49:50.367Z,72.60
2018-02-13T20:52:17.856Z,72.40
2018-02-13T20:54:45.492Z,72.60
2018-02-13T20:57:12.972Z,72.20
2018-02-13T20:59:40.474Z,72.30
2018-02-13T21:02:07.952Z,72.50
2018-02-13T21:04:35.818Z,72.40
2018-02-13T21:07:03.730Z,72.10
2018-02-13T21:09:31.468Z,72.10
2018-02-13T21:11:58.954Z,72.30
2018-02-13T21:14:26.539Z,72.20
2018-02-13T21:16:54.023Z,71.80
2018-02-13T21:19:22.056Z,71.40
2018-02-13T21:21:49.536Z,71.40
2018-02-13T21:24:17.033Z,71.60
2018-02-13T21:26:44.540Z,71.40
2018-02-13T21:29:12.045Z,71.70
2018-02-13T21:31:39.513Z,71.70
2018-02-13T21:34:06.999Z,71.60
2018-02-13T21:36:34.480Z,71.30
2018-02-13T21:39:01.981Z,71.10
2018-02-13T21:41:29.852Z,71.40
2018-02-13T21:43:57.351Z,71.40
2018-02-13T21:46:24.827Z,71.30
2018-02-13T21:48:52.326Z,71.20
2018-02-13T21:51:19.799Z,71.10
2018-02-13T21:53:47.287Z,71.00
2018-02-13T21:56:14.772Z,71.40
2018-02-13T21:58:42.273Z,71.20
2018-02-13T22:01:09.815Z,70.80
2018-02-13T22:03:37.312Z,70.80
2018-02-13T22:06:04.860Z,71.10
2018-02-13T22:08:32.331Z,71.10
2018-02-13T22:10:59.842Z,71.00
2018-02-13T22:13:27.344Z,71.00
2018-02-13T22:15:54.869Z,71.10
2018-02-13T22:18:22.407Z,70.90
2018-02-13T22:20:49.909Z,70.90
2018-02-13T22:23:17.384Z,71.10
2018-02-13T22:25:44.875Z,71.30
2018-02-13T22:28:12.356Z,71.50
2018-02-13T22:30:39.842Z,71.40
2018-02-13T22:33:07.336Z,71.30
2018-02-13T22:35:34.829Z,71.40
2018-02-13T22:38:02.312Z,71.60
2018-02-13T22:40:29.808Z,71.40
2018-02-13T22:42:57.284Z,71.60
2018-02-13T22:45:24.880Z,71.40
2018-02-13T22:47:52.363Z,71.40
2018-02-13T22:50:20.255Z,71.70
2018-02-13T22:52:48.128Z,71.40
2018-02-13T22:55:16.030Z,71.40
2018-02-13T22:57:43.512Z,71.40
2018-02-13T23:00:11.003Z,71.50
2018-02-13T23:02:38.475Z,71.70
2018-02-13T23:05:05.987Z,71.30
2018-02-13T23:07:33.876Z,71.40
2018-02-13T23:10:01.775Z,71.10
2018-02-13T23:12:29.247Z,71.10
2018-02-13T23:14:56.751Z,71.30
2018-02-13T23:17:24.236Z,71.20
2018-02-13T23:19:51.736Z,71.10
2018-02-13T23:22:19.617Z,71.10
2018-02-13T23:24:47.176Z,71.10
2018-02-13T23:27:15.056Z,71.10
2018-02-13T23:29:42.942Z,71.30
2018-02-13T23:32:10.814Z,71.30
2018-02-13T23:34:38.316Z,71.30
2018-02-13T23:37:05.800Z,71.30
2018-02-13T23:39:33.280Z,71.30
2018-02-13T23:42:00.780Z,71.10
2018-02-13T23:44:28.259Z,71.70
2018-02-13T23:46:55.756Z,71.70
2018-02-13T23:49:23.632Z,71.30
2018-02-13T23:51:51.699Z,71.50
2018-02-13T23:54:19.175Z,71.50
2018-02-13T23:56:47.067Z,71.40
2018-02-13T23:59:15.032Z,71.50
